sensor_id;sensor_type;location;lat;lon;timestamp;pressure;altitude;pressure_sealevel;temperature;humidity
20987;BME280;10652;50.306;8.570;2023-03-24T00:02:02;96864.63;;;11.24;100.00
20987;BME280;10652;50.306;8.570;2023-03-24T00:06:05;96869.88;;;11.24;100.00
20987;BME280;10652;50.306;8.570;2023-03-24T00:10:11;96875.47;;;11.20;100.00
20987;BME280;10652;50.306;8.570;2023-03-24T00:14:13;96876.63;;;11.16;100.00
20987;BME280;10652;50.306;8.570;2023-03-24T00:18:15;96892.13;;;11.06;100.00
20987;BME280;10652;50.306;8.570;2023-03-24T00:22:19;96880.66;;;10.95;100.00
20987;BME280;10652;50.306;8.570;2023-03-24T00:26:22;96886.41;;;10.87;100.00
20987;BME280;10652;50.306;8.570;2023-03-24T00:30:25;96891.25;;;10.80;100.00
20987;BME280;10652;50.306;8.570;2023-03-24T00:34:27;96877.47;;;10.77;100.00
20987;BME280;10652;50.306;8.570;2023-03-24T00:38:30;96861.19;;;10.72;100.00
20987;BME280;10652;50.306;8.570;2023-03-24T00:42:33;96855.28;;;10.68;100.00
20987;BME280;10652;50.306;8.570;2023-03-24T00:46:36;96844.34;;;10.62;100.00
20987;BME280;10652;50.306;8.570;2023-03-24T00:50:44;96832.69;;;10.53;100.00
20987;BME280;10652;50.306;8.570;2023-03-24T00:54:49;96839.47;;;10.43;100.00
20987;BME280;10652;50.306;8.570;2023-03-24T00:58:54;96830.84;;;10.41;100.00
20987;BME280;10652;50.306;8.570;2023-03-24T01:02:58;96813.31;;;10.41;100.00
20987;BME280;10652;50.306;8.570;2023-03-24T01:07:00;96821.59;;;10.35;100.00
20987;BME280;10652;50.306;8.570;2023-03-24T01:11:04;96806.03;;;10.32;100.00
20987;BME280;10652;50.306;8.570;2023-03-24T01:15:12;96795.50;;;10.20;100.00
20987;BME280;10652;50.306;8.570;2023-03-24T01:19:15;96793.41;;;10.12;100.00
20987;BME280;10652;50.306;8.570;2023-03-24T01:23:20;96788.03;;;10.14;100.00
20987;BME280;10652;50.306;8.570;2023-03-24T01:27:23;96785.53;;;10.12;100.00
20987;BME280;10652;50.306;8.570;2023-03-24T01:31:25;96779.13;;;10.16;100.00
20987;BME280;10652;50.306;8.570;2023-03-24T01:35:27;96763.38;;;10.16;100.00
20987;BME280;10652;50.306;8.570;2023-03-24T01:39:30;96758.47;;;10.24;100.00
20987;BME280;10652;50.306;8.570;2023-03-24T01:43:34;96754.69;;;10.28;100.00
20987;BME280;10652;50.306;8.570;2023-03-24T01:47:36;96753.38;;;10.35;100.00
20987;BME280;10652;50.306;8.570;2023-03-24T01:51:41;96752.59;;;10.33;100.00
20987;BME280;10652;50.306;8.570;2023-03-24T01:55:45;96752.69;;;10.32;100.00
20987;BME280;10652;50.306;8.570;2023-03-24T01:59:54;96752.69;;;10.32;100.00
20987;BME280;10652;50.306;8.570;2023-03-24T02:04:39;96741.25;;;10.33;100.00
20987;BME280;10652;50.306;8.570;2023-03-24T02:08:50;96737.63;;;10.35;100.00
20987;BME280;10652;50.306;8.570;2023-03-24T02:12:54;96731.22;;;10.39;100.00
20987;BME280;10652;50.306;8.570;2023-03-24T02:30:23;96703.38;;;10.49;100.00
20987;BME280;10652;50.306;8.570;2023-03-24T02:43:51;96671.78;;;10.51;100.00
20987;BME280;10652;50.306;8.570;2023-03-24T02:52:46;96667.69;;;10.47;100.00
20987;BME280;10652;50.306;8.570;2023-03-24T02:56:56;96655.72;;;10.43;100.00
20987;BME280;10652;50.306;8.570;2023-03-24T03:01:28;96636.50;;;10.42;100.00
20987;BME280;10652;50.306;8.570;2023-03-24T03:05:54;96653.00;;;10.44;100.00
20987;BME280;10652;50.306;8.570;2023-03-24T03:10:05;96649.19;;;10.48;100.00
20987;BME280;10652;50.306;8.570;2023-03-24T03:14:12;96648.38;;;10.48;100.00
20987;BME280;10652;50.306;8.570;2023-03-24T03:18:22;96650.97;;;10.48;100.00
20987;BME280;10652;50.306;8.570;2023-03-24T03:22:31;96655.63;;;10.44;100.00
20987;BME280;10652;50.306;8.570;2023-03-24T03:26:35;96649.41;;;10.45;100.00
20987;BME280;10652;50.306;8.570;2023-03-24T03:30:41;96641.41;;;10.47;100.00
20987;BME280;10652;50.306;8.570;2023-03-24T03:34:53;96623.88;;;10.47;100.00
20987;BME280;10652;50.306;8.570;2023-03-24T03:39:29;96616.63;;;10.51;100.00
20987;BME280;10652;50.306;8.570;2023-03-24T03:43:36;96615.47;;;10.55;100.00
20987;BME280;10652;50.306;8.570;2023-03-24T03:47:40;96629.97;;;10.61;100.00
20987;BME280;10652;50.306;8.570;2023-03-24T03:51:42;96632.78;;;10.70;100.00
20987;BME280;10652;50.306;8.570;2023-03-24T03:55:45;96632.06;;;10.81;100.00
20987;BME280;10652;50.306;8.570;2023-03-24T03:59:48;96630.56;;;10.89;100.00
20987;BME280;10652;50.306;8.570;2023-03-24T04:04:01;96623.66;;;11.00;100.00
20987;BME280;10652;50.306;8.570;2023-03-24T04:17:50;96600.13;;;11.11;100.00
20987;BME280;10652;50.306;8.570;2023-03-24T04:22:28;96609.88;;;11.09;100.00
20987;BME280;10652;50.306;8.570;2023-03-24T04:26:58;96605.78;;;11.05;100.00
20987;BME280;10652;50.306;8.570;2023-03-24T04:31:12;96606.25;;;10.99;100.00
20987;BME280;10652;50.306;8.570;2023-03-24T04:35:24;96602.28;;;10.93;100.00
20987;BME280;10652;50.306;8.570;2023-03-24T04:39:48;96597.25;;;10.90;100.00
20987;BME280;10652;50.306;8.570;2023-03-24T04:43:53;96578.72;;;10.91;100.00
20987;BME280;10652;50.306;8.570;2023-03-24T04:48:01;96568.34;;;10.90;100.00
20987;BME280;10652;50.306;8.570;2023-03-24T04:52:25;96583.38;;;10.88;100.00
20987;BME280;10652;50.306;8.570;2023-03-24T05:00:39;96595.66;;;10.87;100.00
20987;BME280;10652;50.306;8.570;2023-03-24T05:04:42;96611.03;;;11.17;100.00
20987;BME280;10652;50.306;8.570;2023-03-24T05:09:04;96632.81;;;11.19;100.00
20987;BME280;10652;50.306;8.570;2023-03-24T05:13:08;96640.56;;;11.08;100.00
20987;BME280;10652;50.306;8.570;2023-03-24T05:17:32;96651.53;;;11.02;100.00
20987;BME280;10652;50.306;8.570;2023-03-24T05:21:35;96662.38;;;10.98;100.00
20987;BME280;10652;50.306;8.570;2023-03-24T05:25:40;96660.78;;;10.95;100.00
20987;BME280;10652;50.306;8.570;2023-03-24T05:29:42;96657.22;;;10.96;100.00
20987;BME280;10652;50.306;8.570;2023-03-24T05:33:49;96650.19;;;10.97;100.00
20987;BME280;10652;50.306;8.570;2023-03-24T05:37:54;96653.66;;;10.97;100.00
20987;BME280;10652;50.306;8.570;2023-03-24T05:41:56;96656.28;;;10.97;100.00
20987;BME280;10652;50.306;8.570;2023-03-24T05:45:58;96652.72;;;10.98;100.00
20987;BME280;10652;50.306;8.570;2023-03-24T05:50:05;96657.97;;;10.98;100.00
20987;BME280;10652;50.306;8.570;2023-03-24T05:54:07;96652.47;;;11.01;100.00
20987;BME280;10652;50.306;8.570;2023-03-24T05:58:17;96667.41;;;11.01;100.00
20987;BME280;10652;50.306;8.570;2023-03-24T06:02:24;96664.69;;;11.02;100.00
20987;BME280;10652;50.306;8.570;2023-03-24T06:06:35;96659.09;;;11.19;100.00
20987;BME280;10652;50.306;8.570;2023-03-24T06:10:39;96662.06;;;11.39;100.00
20987;BME280;10652;50.306;8.570;2023-03-24T06:14:42;96675.56;;;11.34;100.00
20987;BME280;10652;50.306;8.570;2023-03-24T06:18:47;96676.59;;;11.31;100.00
20987;BME280;10652;50.306;8.570;2023-03-24T06:23:13;96677.84;;;11.39;100.00
20987;BME280;10652;50.306;8.570;2023-03-24T06:27:29;96671.09;;;11.47;100.00
20987;BME280;10652;50.306;8.570;2023-03-24T06:31:32;96684.34;;;11.46;100.00
20987;BME280;10652;50.306;8.570;2023-03-24T06:35:36;96678.47;;;11.42;100.00
20987;BME280;10652;50.306;8.570;2023-03-24T06:39:42;96675.94;;;11.41;100.00
20987;BME280;10652;50.306;8.570;2023-03-24T06:43:45;96682.66;;;11.45;100.00
20987;BME280;10652;50.306;8.570;2023-03-24T06:47:48;96667.38;;;11.50;100.00
20987;BME280;10652;50.306;8.570;2023-03-24T06:51:52;96672.72;;;11.61;100.00
20987;BME280;10652;50.306;8.570;2023-03-24T06:55:55;96684.63;;;11.77;100.00
20987;BME280;10652;50.306;8.570;2023-03-24T06:59:59;96700.72;;;11.97;100.00
20987;BME280;10652;50.306;8.570;2023-03-24T07:04:06;96696.47;;;12.07;99.88
20987;BME280;10652;50.306;8.570;2023-03-24T07:08:22;96693.50;;;12.11;98.79
20987;BME280;10652;50.306;8.570;2023-03-24T07:12:39;96695.44;;;12.44;100.00
20987;BME280;10652;50.306;8.570;2023-03-24T07:16:41;96690.81;;;13.03;100.00
20987;BME280;10652;50.306;8.570;2023-03-24T07:21:06;96697.72;;;13.49;95.22
20987;BME280;10652;50.306;8.570;2023-03-24T07:25:09;96706.09;;;13.54;89.72
20987;BME280;10652;50.306;8.570;2023-03-24T07:29:22;96715.94;;;13.19;87.70
20987;BME280;10652;50.306;8.570;2023-03-24T07:33:38;96703.94;;;12.81;88.65
20987;BME280;10652;50.306;8.570;2023-03-24T07:37:41;96698.66;;;12.59;90.51
20987;BME280;10652;50.306;8.570;2023-03-24T07:41:43;96694.44;;;12.45;92.06
20987;BME280;10652;50.306;8.570;2023-03-24T07:45:55;96715.38;;;12.36;92.27
20987;BME280;10652;50.306;8.570;2023-03-24T07:50:02;96718.91;;;12.23;91.73
20987;BME280;10652;50.306;8.570;2023-03-24T07:54:06;96728.38;;;12.26;90.64
20987;BME280;10652;50.306;8.570;2023-03-24T07:58:17;96724.56;;;12.30;90.89
20987;BME280;10652;50.306;8.570;2023-03-24T08:02:35;96732.06;;;12.47;90.88
20987;BME280;10652;50.306;8.570;2023-03-24T08:06:56;96730.66;;;12.65;90.36
20987;BME280;10652;50.306;8.570;2023-03-24T08:10:59;96719.75;;;12.81;90.96
20987;BME280;10652;50.306;8.570;2023-03-24T08:15:02;96716.91;;;12.84;90.89
20987;BME280;10652;50.306;8.570;2023-03-24T08:19:05;96709.00;;;12.84;89.82
20987;BME280;10652;50.306;8.570;2023-03-24T08:23:07;96733.91;;;12.80;90.80
20987;BME280;10652;50.306;8.570;2023-03-24T08:27:09;96726.59;;;12.73;90.92
20987;BME280;10652;50.306;8.570;2023-03-24T08:31:11;96733.09;;;12.80;91.62
20987;BME280;10652;50.306;8.570;2023-03-24T08:35:15;96739.69;;;12.85;91.55
20987;BME280;10652;50.306;8.570;2023-03-24T08:39:19;96750.22;;;12.85;91.15
20987;BME280;10652;50.306;8.570;2023-03-24T08:43:21;96735.47;;;12.72;90.40
20987;BME280;10652;50.306;8.570;2023-03-24T08:47:24;96743.69;;;12.56;92.09
20987;BME280;10652;50.306;8.570;2023-03-24T08:51:27;96746.78;;;12.50;94.58
20987;BME280;10652;50.306;8.570;2023-03-24T08:55:29;96737.91;;;12.51;96.54
20987;BME280;10652;50.306;8.570;2023-03-24T08:59:31;96739.13;;;12.47;96.97
20987;BME280;10652;50.306;8.570;2023-03-24T09:03:33;96758.63;;;12.44;98.95
20987;BME280;10652;50.306;8.570;2023-03-24T09:07:36;96788.31;;;12.46;99.16
20987;BME280;10652;50.306;8.570;2023-03-24T09:11:38;96823.31;;;11.88;93.00
20987;BME280;10652;50.306;8.570;2023-03-24T09:15:51;96843.13;;;10.92;88.80
20987;BME280;10652;50.306;8.570;2023-03-24T09:19:53;96850.53;;;10.21;94.59
20987;BME280;10652;50.306;8.570;2023-03-24T09:23:56;96863.69;;;10.07;97.65
20987;BME280;10652;50.306;8.570;2023-03-24T09:27:58;96869.13;;;10.04;97.60
20987;BME280;10652;50.306;8.570;2023-03-24T09:32:00;96870.22;;;10.14;98.12
20987;BME280;10652;50.306;8.570;2023-03-24T09:36:03;96848.78;;;10.34;98.46
20987;BME280;10652;50.306;8.570;2023-03-24T09:40:06;96854.88;;;10.74;99.52
20987;BME280;10652;50.306;8.570;2023-03-24T09:44:22;96851.13;;;10.91;94.72
20987;BME280;10652;50.306;8.570;2023-03-24T09:48:30;96860.44;;;10.82;94.64
20987;BME280;10652;50.306;8.570;2023-03-24T09:52:41;96861.59;;;10.78;95.93
20987;BME280;10652;50.306;8.570;2023-03-24T09:56:47;96881.16;;;10.87;95.36
20987;BME280;10652;50.306;8.570;2023-03-24T10:00:52;96875.28;;;10.96;94.76
20987;BME280;10652;50.306;8.570;2023-03-24T10:04:57;96879.41;;;11.00;95.29
20987;BME280;10652;50.306;8.570;2023-03-24T10:09:14;96889.19;;;10.98;93.88
20987;BME280;10652;50.306;8.570;2023-03-24T10:14:12;96872.66;;;10.96;93.18
20987;BME280;10652;50.306;8.570;2023-03-24T10:18:14;96880.34;;;10.99;90.93
20987;BME280;10652;50.306;8.570;2023-03-24T10:26:47;96874.22;;;10.86;90.29
20987;BME280;10652;50.306;8.570;2023-03-24T10:30:51;96879.84;;;10.94;90.57
20987;BME280;10652;50.306;8.570;2023-03-24T10:34:59;96868.19;;;11.23;92.45
20987;BME280;10652;50.306;8.570;2023-03-24T10:39:13;96872.38;;;11.64;92.20
20987;BME280;10652;50.306;8.570;2023-03-24T10:43:24;96860.13;;;11.88;87.59
20987;BME280;10652;50.306;8.570;2023-03-24T10:47:29;96853.28;;;11.98;84.67
20987;BME280;10652;50.306;8.570;2023-03-24T10:51:34;96847.63;;;12.15;83.57
20987;BME280;10652;50.306;8.570;2023-03-24T10:55:37;96840.38;;;12.43;82.84
20987;BME280;10652;50.306;8.570;2023-03-24T10:59:51;96861.88;;;12.84;82.23
20987;BME280;10652;50.306;8.570;2023-03-24T11:03:58;96872.63;;;12.81;80.13
20987;BME280;10652;50.306;8.570;2023-03-24T11:08:20;96893.56;;;12.48;76.92
20987;BME280;10652;50.306;8.570;2023-03-24T11:12:29;96893.50;;;12.24;78.12
20987;BME280;10652;50.306;8.570;2023-03-24T11:16:37;96882.19;;;12.71;80.16
20987;BME280;10652;50.306;8.570;2023-03-24T11:20:46;96893.06;;;13.01;76.01
20987;BME280;10652;50.306;8.570;2023-03-24T11:24:54;96901.47;;;13.06;76.49
20987;BME280;10652;50.306;8.570;2023-03-24T11:29:00;96907.69;;;13.05;74.13
20987;BME280;10652;50.306;8.570;2023-03-24T11:33:03;96895.19;;;12.96;72.73
20987;BME280;10652;50.306;8.570;2023-03-24T11:37:18;96892.31;;;12.88;72.47
20987;BME280;10652;50.306;8.570;2023-03-24T11:41:20;96890.59;;;12.76;72.07
20987;BME280;10652;50.306;8.570;2023-03-24T11:45:39;96883.09;;;12.94;72.94
20987;BME280;10652;50.306;8.570;2023-03-24T11:49:46;96876.41;;;13.01;71.52
20987;BME280;10652;50.306;8.570;2023-03-24T11:53:52;96864.06;;;13.01;68.74
20987;BME280;10652;50.306;8.570;2023-03-24T11:58:00;96878.53;;;12.96;68.74
20987;BME280;10652;50.306;8.570;2023-03-24T12:06:53;96886.06;;;13.24;69.49
20987;BME280;10652;50.306;8.570;2023-03-24T12:11:15;96891.00;;;13.40;69.32
20987;BME280;10652;50.306;8.570;2023-03-24T12:15:31;96884.81;;;13.52;67.50
20987;BME280;10652;50.306;8.570;2023-03-24T12:38:20;96878.44;;;13.99;62.40
20987;BME280;10652;50.306;8.570;2023-03-24T12:42:27;96879.28;;;13.99;60.34
20987;BME280;10652;50.306;8.570;2023-03-24T12:46:45;96881.66;;;14.25;55.83
20987;BME280;10652;50.306;8.570;2023-03-24T12:55:42;96893.22;;;14.99;54.78
20987;BME280;10652;50.306;8.570;2023-03-24T12:59:53;96890.03;;;15.05;48.14
20987;BME280;10652;50.306;8.570;2023-03-24T13:08:22;96887.72;;;14.48;49.31
20987;BME280;10652;50.306;8.570;2023-03-24T13:12:34;96872.47;;;14.40;49.63
20987;BME280;10652;50.306;8.570;2023-03-24T13:16:41;96880.53;;;14.38;49.79
20987;BME280;10652;50.306;8.570;2023-03-24T13:20:47;96882.81;;;14.32;49.76
20987;BME280;10652;50.306;8.570;2023-03-24T13:24:53;96875.75;;;14.32;50.21
20987;BME280;10652;50.306;8.570;2023-03-24T13:33:50;96876.31;;;14.47;49.26
20987;BME280;10652;50.306;8.570;2023-03-24T13:38:03;96863.81;;;14.60;48.39
20987;BME280;10652;50.306;8.570;2023-03-24T13:42:28;96863.81;;;14.60;48.77
20987;BME280;10652;50.306;8.570;2023-03-24T13:46:35;96871.69;;;14.71;49.13
20987;BME280;10652;50.306;8.570;2023-03-24T13:50:54;96873.41;;;14.93;48.48
20987;BME280;10652;50.306;8.570;2023-03-24T13:54:59;96864.16;;;14.87;47.87
20987;BME280;10652;50.306;8.570;2023-03-24T13:59:23;96858.16;;;14.85;48.44
20987;BME280;10652;50.306;8.570;2023-03-24T14:03:43;96854.81;;;14.83;48.13
20987;BME280;10652;50.306;8.570;2023-03-24T14:07:48;96865.03;;;14.77;47.70
20987;BME280;10652;50.306;8.570;2023-03-24T14:20:38;96841.63;;;14.72;48.55
20987;BME280;10652;50.306;8.570;2023-03-24T14:24:44;96837.72;;;14.67;48.17
20987;BME280;10652;50.306;8.570;2023-03-24T14:28:49;96854.19;;;14.59;48.35
20987;BME280;10652;50.306;8.570;2023-03-24T14:32:57;96833.50;;;14.64;48.31
20987;BME280;10652;50.306;8.570;2023-03-24T14:37:00;96833.50;;;14.64;47.24
20987;BME280;10652;50.306;8.570;2023-03-24T14:41:07;96822.97;;;14.53;46.55
20987;BME280;10652;50.306;8.570;2023-03-24T14:49:34;96829.44;;;14.60;47.09
20987;BME280;10652;50.306;8.570;2023-03-24T14:53:36;96836.88;;;14.66;47.58
20987;BME280;10652;50.306;8.570;2023-03-24T14:57:41;96832.66;;;14.64;44.97
20987;BME280;10652;50.306;8.570;2023-03-24T15:01:45;96829.91;;;14.65;45.11
20987;BME280;10652;50.306;8.570;2023-03-24T15:05:49;96827.25;;;14.65;44.76
20987;BME280;10652;50.306;8.570;2023-03-24T15:09:51;96824.63;;;14.65;44.20
20987;BME280;10652;50.306;8.570;2023-03-24T15:13:55;96830.47;;;14.69;44.32
20987;BME280;10652;50.306;8.570;2023-03-24T15:17:58;96824.03;;;14.62;44.54
20987;BME280;10652;50.306;8.570;2023-03-24T15:22:04;96820.06;;;14.56;45.51
20987;BME280;10652;50.306;8.570;2023-03-24T15:26:11;96810.94;;;14.49;45.50
20987;BME280;10652;50.306;8.570;2023-03-24T15:30:14;96818.06;;;14.49;45.34
20987;BME280;10652;50.306;8.570;2023-03-24T15:34:28;96812.69;;;14.39;45.13
20987;BME280;10652;50.306;8.570;2023-03-24T15:38:31;96800.34;;;14.28;44.97
20987;BME280;10652;50.306;8.570;2023-03-24T15:42:39;96809.22;;;14.27;45.49
20987;BME280;10652;50.306;8.570;2023-03-24T15:46:42;96811.06;;;14.16;45.20
20987;BME280;10652;50.306;8.570;2023-03-24T15:50:59;96807.38;;;14.07;46.41
20987;BME280;10652;50.306;8.570;2023-03-24T15:59:34;96799.34;;;13.97;45.14
20987;BME280;10652;50.306;8.570;2023-03-24T16:03:40;96801.75;;;14.00;45.50
20987;BME280;10652;50.306;8.570;2023-03-24T16:07:44;96802.00;;;13.97;45.16
20987;BME280;10652;50.306;8.570;2023-03-24T16:11:46;96807.91;;;13.79;45.96
20987;BME280;10652;50.306;8.570;2023-03-24T16:15:53;96806.84;;;13.59;46.56
20987;BME280;10652;50.306;8.570;2023-03-24T16:19:57;96809.44;;;13.37;46.64
20987;BME280;10652;50.306;8.570;2023-03-24T16:23:59;96811.13;;;13.16;47.28
20987;BME280;10652;50.306;8.570;2023-03-24T16:28:01;96814.72;;;13.03;47.85
20987;BME280;10652;50.306;8.570;2023-03-24T16:32:03;96814.22;;;12.98;48.30
20987;BME280;10652;50.306;8.570;2023-03-24T16:36:08;96818.50;;;12.99;49.06
20987;BME280;10652;50.306;8.570;2023-03-24T16:40:33;96814.44;;;12.95;49.65
20987;BME280;10652;50.306;8.570;2023-03-24T16:44:35;96809.75;;;12.88;48.97
20987;BME280;10652;50.306;8.570;2023-03-24T16:48:37;96821.09;;;12.77;49.70
20987;BME280;10652;50.306;8.570;2023-03-24T16:52:39;96821.06;;;12.66;48.39
20987;BME280;10652;50.306;8.570;2023-03-24T16:56:41;96817.69;;;12.53;48.45
20987;BME280;10652;50.306;8.570;2023-03-24T17:00:44;96819.56;;;12.40;47.88
20987;BME280;10652;50.306;8.570;2023-03-24T17:04:46;96821.25;;;12.28;47.48
20987;BME280;10652;50.306;8.570;2023-03-24T17:08:50;96831.84;;;12.15;47.99
20987;BME280;10652;50.306;8.570;2023-03-24T17:12:54;96833.53;;;12.04;48.26
20987;BME280;10652;50.306;8.570;2023-03-24T17:16:56;96831.91;;;11.90;48.72
20987;BME280;10652;50.306;8.570;2023-03-24T17:21:00;96831.94;;;11.77;49.13
20987;BME280;10652;50.306;8.570;2023-03-24T17:25:02;96838.19;;;11.64;49.69
20987;BME280;10652;50.306;8.570;2023-03-24T17:29:05;96845.03;;;11.54;49.73
20987;BME280;10652;50.306;8.570;2023-03-24T17:33:16;96845.69;;;11.45;50.42
20987;BME280;10652;50.306;8.570;2023-03-24T17:37:19;96848.94;;;11.35;50.36
20987;BME280;10652;50.306;8.570;2023-03-24T17:41:21;96850.56;;;11.25;50.33
20987;BME280;10652;50.306;8.570;2023-03-24T17:45:23;96858.75;;;11.21;50.77
20987;BME280;10652;50.306;8.570;2023-03-24T17:49:25;96859.44;;;11.10;51.51
20987;BME280;10652;50.306;8.570;2023-03-24T17:53:27;96867.84;;;11.03;51.97
20987;BME280;10652;50.306;8.570;2023-03-24T17:57:30;96873.59;;;10.95;52.50
20987;BME280;10652;50.306;8.570;2023-03-24T18:01:32;96870.66;;;10.87;52.89
20987;BME280;10652;50.306;8.570;2023-03-24T18:05:36;96880.09;;;10.77;53.20
20987;BME280;10652;50.306;8.570;2023-03-24T18:09:38;96882.19;;;10.72;53.72
20987;BME280;10652;50.306;8.570;2023-03-24T18:13:41;96881.44;;;10.70;53.98
20987;BME280;10652;50.306;8.570;2023-03-24T18:17:43;96891.50;;;10.63;54.20
20987;BME280;10652;50.306;8.570;2023-03-24T18:21:46;96892.31;;;10.51;54.64
20987;BME280;10652;50.306;8.570;2023-03-24T18:25:55;96897.31;;;10.41;54.93
20987;BME280;10652;50.306;8.570;2023-03-24T18:29:57;96902.97;;;10.35;55.30
20987;BME280;10652;50.306;8.570;2023-03-24T18:34:00;96900.75;;;10.29;55.58
20987;BME280;10652;50.306;8.570;2023-03-24T18:38:02;96902.81;;;10.24;55.62
20987;BME280;10652;50.306;8.570;2023-03-24T18:42:04;96916.16;;;10.21;55.85
20987;BME280;10652;50.306;8.570;2023-03-24T18:46:07;96913.53;;;10.21;56.21
20987;BME280;10652;50.306;8.570;2023-03-24T18:50:10;96919.78;;;10.19;56.25
20987;BME280;10652;50.306;8.570;2023-03-24T18:54:12;96918.94;;;10.18;56.51
20987;BME280;10652;50.306;8.570;2023-03-24T18:58:15;96927.00;;;10.29;56.65
20987;BME280;10652;50.306;8.570;2023-03-24T19:02:17;96934.19;;;10.40;56.52
20987;BME280;10652;50.306;8.570;2023-03-24T19:06:19;96964.06;;;10.52;56.32
20987;BME280;10652;50.306;8.570;2023-03-24T19:10:21;97016.75;;;10.63;60.87
20987;BME280;10652;50.306;8.570;2023-03-24T19:14:23;97089.53;;;10.18;76.87
20987;BME280;10652;50.306;8.570;2023-03-24T19:18:27;97070.44;;;9.42;82.83
20987;BME280;10652;50.306;8.570;2023-03-24T19:22:29;97057.69;;;8.91;83.68
20987;BME280;10652;50.306;8.570;2023-03-24T19:26:31;97052.22;;;8.64;84.77
20987;BME280;10652;50.306;8.570;2023-03-24T19:30:37;97018.03;;;8.51;85.62
20987;BME280;10652;50.306;8.570;2023-03-24T19:34:39;97001.13;;;8.41;85.79
20987;BME280;10652;50.306;8.570;2023-03-24T19:38:41;97009.22;;;8.37;86.15
20987;BME280;10652;50.306;8.570;2023-03-24T19:42:44;96996.75;;;8.26;87.23
20987;BME280;10652;50.306;8.570;2023-03-24T19:46:47;96990.00;;;8.22;88.20
20987;BME280;10652;50.306;8.570;2023-03-24T19:50:51;96984.47;;;8.11;88.95
20987;BME280;10652;50.306;8.570;2023-03-24T19:54:53;96984.72;;;8.06;89.81
20987;BME280;10652;50.306;8.570;2023-03-24T19:58:56;96968.84;;;7.94;89.93
20987;BME280;10652;50.306;8.570;2023-03-24T20:02:58;96966.72;;;7.85;90.53
20987;BME280;10652;50.306;8.570;2023-03-24T20:07:00;96961.88;;;7.77;91.88
20987;BME280;10652;50.306;8.570;2023-03-24T20:11:09;96965.59;;;7.73;93.19
20987;BME280;10652;50.306;8.570;2023-03-24T20:15:11;96960.47;;;7.71;93.76
20987;BME280;10652;50.306;8.570;2023-03-24T20:19:13;96958.16;;;7.65;93.34
20987;BME280;10652;50.306;8.570;2023-03-24T20:23:15;96960.94;;;7.62;93.80
20987;BME280;10652;50.306;8.570;2023-03-24T20:27:17;96960.16;;;7.60;94.06
20987;BME280;10652;50.306;8.570;2023-03-24T20:31:19;96961.03;;;7.61;93.76
20987;BME280;10652;50.306;8.570;2023-03-24T20:35:23;96960.34;;;7.57;93.71
20987;BME280;10652;50.306;8.570;2023-03-24T20:39:25;96945.75;;;7.53;93.43
20987;BME280;10652;50.306;8.570;2023-03-24T20:43:27;96943.88;;;7.55;93.42
20987;BME280;10652;50.306;8.570;2023-03-24T20:47:30;96936.91;;;7.56;93.38
20987;BME280;10652;50.306;8.570;2023-03-24T20:51:32;96937.25;;;7.65;92.65
20987;BME280;10652;50.306;8.570;2023-03-24T20:55:34;96926.72;;;7.82;91.63
20987;BME280;10652;50.306;8.570;2023-03-24T20:59:37;96930.28;;;7.97;90.07
20987;BME280;10652;50.306;8.570;2023-03-24T21:03:40;96932.41;;;8.06;88.81
20987;BME280;10652;50.306;8.570;2023-03-24T21:07:43;96943.91;;;8.19;88.20
20987;BME280;10652;50.306;8.570;2023-03-24T21:11:46;96951.16;;;8.61;89.35
20987;BME280;10652;50.306;8.570;2023-03-24T21:15:48;96964.31;;;8.76;85.04
20987;BME280;10652;50.306;8.570;2023-03-24T21:19:50;96987.09;;;8.89;85.85
20987;BME280;10652;50.306;8.570;2023-03-24T21:23:55;96999.38;;;9.03;82.75
20987;BME280;10652;50.306;8.570;2023-03-24T21:27:58;97001.03;;;8.90;83.42
20987;BME280;10652;50.306;8.570;2023-03-24T21:32:00;97014.97;;;8.75;83.20
20987;BME280;10652;50.306;8.570;2023-03-24T21:36:02;97013.97;;;8.61;83.78
20987;BME280;10652;50.306;8.570;2023-03-24T21:40:05;97009.16;;;8.54;84.29
20987;BME280;10652;50.306;8.570;2023-03-24T21:44:09;97002.66;;;8.45;84.24
20987;BME280;10652;50.306;8.570;2023-03-24T21:48:11;96997.59;;;8.42;84.57
20987;BME280;10652;50.306;8.570;2023-03-24T21:52:15;96992.28;;;8.44;84.75
20987;BME280;10652;50.306;8.570;2023-03-24T21:56:20;96988.22;;;8.38;84.64
20987;BME280;10652;50.306;8.570;2023-03-24T22:00:24;96997.19;;;8.34;85.06
20987;BME280;10652;50.306;8.570;2023-03-24T22:04:26;96967.03;;;8.27;86.42
20987;BME280;10652;50.306;8.570;2023-03-24T22:08:29;96966.59;;;8.19;87.68
20987;BME280;10652;50.306;8.570;2023-03-24T22:12:32;96952.88;;;8.15;88.71
20987;BME280;10652;50.306;8.570;2023-03-24T22:16:34;96964.31;;;8.13;88.45
20987;BME280;10652;50.306;8.570;2023-03-24T22:20:36;96963.63;;;8.09;88.51
20987;BME280;10652;50.306;8.570;2023-03-24T22:24:38;96973.09;;;8.12;88.29
20987;BME280;10652;50.306;8.570;2023-03-24T22:28:41;96963.63;;;8.09;87.28
20987;BME280;10652;50.306;8.570;2023-03-24T22:32:43;96958.56;;;8.06;86.50
20987;BME280;10652;50.306;8.570;2023-03-24T22:36:45;96965.75;;;8.03;85.69
20987;BME280;10652;50.306;8.570;2023-03-24T22:40:47;96962.69;;;7.95;85.25
20987;BME280;10652;50.306;8.570;2023-03-24T22:44:49;96962.25;;;7.87;85.01
20987;BME280;10652;50.306;8.570;2023-03-24T22:48:51;96947.75;;;7.81;84.89
20987;BME280;10652;50.306;8.570;2023-03-24T22:52:54;96936.47;;;8.12;88.57
20987;BME280;10652;50.306;8.570;2023-03-24T22:56:56;96963.13;;;8.03;83.80
20987;BME280;10652;50.306;8.570;2023-03-24T23:00:58;96970.53;;;7.95;83.37
20987;BME280;10652;50.306;8.570;2023-03-24T23:05:00;96979.13;;;7.97;83.36
20987;BME280;10652;50.306;8.570;2023-03-24T23:09:03;96979.91;;;7.99;83.69
20987;BME280;10652;50.306;8.570;2023-03-24T23:13:06;96994.06;;;7.95;84.27
20987;BME280;10652;50.306;8.570;2023-03-24T23:17:09;96996.00;;;7.91;84.76
20987;BME280;10652;50.306;8.570;2023-03-24T23:21:13;96988.56;;;7.83;85.63
20987;BME280;10652;50.306;8.570;2023-03-24T23:25:16;96989.81;;;7.76;86.54